createdAt,value
2022-09-14T00:07:18.030Z,100694.72
2022-09-14T00:17:19.259Z,100686.47
2022-09-14T00:27:21.493Z,100683.66
2022-09-14T00:37:22.795Z,100684.13
2022-09-14T00:47:24.039Z,100666.88
2022-09-14T00:57:25.277Z,100652.34
2022-09-14T01:07:26.527Z,100625.78
2022-09-14T01:17:27.762Z,100618.59
2022-09-14T01:27:29.006Z,100618.38
2022-09-14T01:37:30.222Z,100628.03
2022-09-14T01:47:31.515Z,100618.06
2022-09-14T01:57:32.751Z,100601.44
2022-09-14T02:07:34.023Z,100601.25
2022-09-14T02:17:35.425Z,100609.25
2022-09-14T02:27:36.673Z,100607.56
2022-09-14T02:37:37.942Z,100616.56
2022-09-14T02:47:39.198Z,100604.88
2022-09-14T02:57:40.426Z,100599.63
2022-09-14T03:07:41.643Z,100581.63
2022-09-14T03:17:42.869Z,100576.34
2022-09-14T03:27:44.099Z,100576.28
2022-09-14T03:37:45.327Z,100554.31
2022-09-14T03:47:46.559Z,100543.47
2022-09-14T03:57:47.765Z,100545.19
2022-09-14T04:07:48.993Z,100538.13
2022-09-14T04:17:50.245Z,100525.28
2022-09-14T04:28:16.869Z,100525.06
2022-09-14T04:38:12.749Z,100519.16
2022-09-14T04:48:14.002Z,100516.69
2022-09-14T04:58:15.224Z,100501.38
2022-09-14T05:08:16.470Z,100491.63
2022-09-14T05:18:17.699Z,100485.53
2022-09-14T05:28:18.905Z,100497.31
2022-09-14T05:38:20.196Z,100495.94
2022-09-14T05:48:21.411Z,100503.63
2022-09-14T05:58:22.658Z,100506.53
2022-09-14T06:08:23.875Z,100507.06
2022-09-14T06:18:25.103Z,100522.59
2022-09-14T06:28:26.460Z,100522.72
2022-09-14T06:38:27.881Z,100514.66
2022-09-14T06:48:29.282Z,100505.78
2022-09-14T06:58:30.609Z,100495.72
2022-09-14T07:08:31.863Z,100485.53
2022-09-14T07:18:34.273Z,100474.38
2022-09-14T07:28:35.543Z,100473.44
2022-09-14T07:38:51.556Z,100483.28
2022-09-14T07:48:53.689Z,100468.72
2022-09-14T07:59:03.335Z,100479.00
2022-09-14T08:09:16.290Z,100468.81
2022-09-14T08:19:17.497Z,100468.09
2022-09-14T08:29:18.739Z,100466.56
2022-09-14T08:39:20.063Z,100470.34
2022-09-14T08:49:21.388Z,100480.28
2022-09-14T08:59:22.822Z,100482.53
2022-09-14T09:09:24.234Z,100483.59
2022-09-14T09:19:28.668Z,100479.22
2022-09-14T09:29:36.624Z,100472.91
2022-09-14T09:39:44.595Z,100459.72
2022-09-14T09:49:52.516Z,100475.16
2022-09-14T10:00:00.516Z,100473.66
2022-09-14T10:10:08.504Z,100470.13
2022-09-14T10:20:16.485Z,100464.53
2022-09-14T10:30:24.571Z,100466.56
2022-09-14T10:40:32.673Z,100467.31
2022-09-14T10:50:40.606Z,100464.00
2022-09-14T11:11:11.541Z,100461.31
2022-09-14T11:21:13.084Z,100445.81
2022-09-14T11:31:14.851Z,100452.41
2022-09-14T11:51:45.019Z,100439.78
2022-09-14T12:01:46.296Z,100452.41
2022-09-14T12:11:47.664Z,100436.78
2022-09-14T12:21:56.174Z,100442.34
2022-09-14T12:32:01.179Z,100442.34
2022-09-14T13:23:58.326Z,100405.44
2022-09-14T13:34:00.809Z,100398.13
2022-09-14T13:44:08.792Z,100410.56
2022-09-14T13:54:16.906Z,100405.75
2022-09-14T14:04:25.358Z,100391.06
2022-09-14T14:14:33.603Z,100379.53
2022-09-14T14:25:02.402Z,100379.19
2022-09-14T14:35:02.615Z,100369.88
2022-09-14T14:45:03.970Z,100357.25
2022-09-14T14:55:13.647Z,100362.47
2022-09-14T15:05:15.125Z,100357.97
2022-09-14T15:25:45.269Z,100353.94
2022-09-14T15:35:54.015Z,100349.09
2022-09-14T15:45:55.683Z,100349.09
2022-09-14T15:55:57.205Z,100373.41
2022-09-14T16:06:05.194Z,100380.47
2022-09-14T16:26:35.454Z,100394.84
2022-09-14T16:36:36.688Z,100416.91
2022-09-14T16:57:06.887Z,100415.38
2022-09-14T17:07:08.207Z,100405.00
2022-09-14T17:17:09.888Z,100404.25
2022-09-14T17:27:13.843Z,100405.31
2022-09-14T17:37:21.616Z,100408.63
2022-09-14T17:57:51.782Z,100400.50
2022-09-14T18:07:53.138Z,100400.72
2022-09-14T18:17:54.441Z,100419.22
2022-09-14T18:27:55.885Z,100411.00
2022-09-14T18:37:57.122Z,100428.44
2022-09-14T18:47:58.349Z,100443.44
2022-09-14T18:58:02.022Z,100450.28
2022-09-14T19:08:03.391Z,100458.19
2022-09-14T19:18:04.735Z,100460.44
2022-09-14T19:28:06.019Z,100468.38
2022-09-14T19:38:07.250Z,100473.19
2022-09-14T19:48:08.598Z,100472.97
2022-09-14T19:58:09.921Z,100470.84
2022-09-14T20:08:11.168Z,100478.97
2022-09-14T20:18:12.401Z,100487.84
2022-09-14T20:28:19.165Z,100496.75
2022-09-14T20:38:20.637Z,100503.97
2022-09-14T20:48:21.897Z,100515.69
2022-09-14T20:58:23.191Z,100523.38
2022-09-14T21:08:24.452Z,100534.50
2022-09-14T21:18:25.692Z,100540.22
2022-09-14T21:28:27.045Z,100527.94
2022-09-14T21:38:28.272Z,100534.88
2022-09-14T21:48:29.541Z,100542.28
2022-09-14T21:58:30.846Z,100551.28
2022-09-14T22:08:32.067Z,100545.06
2022-09-14T22:18:33.288Z,100549.97
2022-09-14T22:28:34.511Z,100561.34
2022-09-14T22:38:35.814Z,100582.34
2022-09-14T22:48:37.049Z,100565.66
2022-09-14T22:58:38.282Z,100560.47
2022-09-14T23:08:39.505Z,100561.28
2022-09-14T23:18:40.844Z,100569.78
2022-09-14T23:28:42.136Z,100568.38
2022-09-14T23:38:43.385Z,100566.56
2022-09-14T23:48:44.647Z,100582.50
2022-09-14T23:58:45.890Z,100587.09
